Hackberry, Arizona
Current Conditions -  °F | °C
As of 9:51 PM on Thursday 27 Nov 2014 (Local Time) from KIGM Reporting Station
Clear Clear  
Wind Chill: 44°   Ceiling: Unl
Heat Index: 44°   Visibility: NA
Dew Point: 16°   Wind: 0mph
Humidity: 32%   Direction: NA
Pressure: 30.2"   Gusts: NA
Location:  35.37°N, 113.73°W
Report Text: KIGM 280451Z AUTO 00000KT CLR 07/M09 A3020 RMK AO2 SLP189 T00671089 $
Loading
Personal Weather Stations






























Interactive Weather Map New forecast layout! Learn more

10-Day Weather Forecast

Advertisements
Track Severe Weather on mobile